createdAt,value
2019-05-21T00:02:21.731Z,0
2019-05-21T00:04:55.451Z,0
2019-05-21T00:07:29.945Z,0
2019-05-21T00:10:03.899Z,0
2019-05-21T00:12:37.648Z,0
2019-05-21T00:15:12.135Z,0
2019-05-21T00:17:46.140Z,0
2019-05-21T00:20:20.097Z,0
2019-05-21T00:22:54.185Z,0
2019-05-21T00:25:28.100Z,0
2019-05-21T00:28:02.137Z,0
2019-05-21T00:30:36.446Z,0
2019-05-21T00:33:10.426Z,0
2019-05-21T00:35:44.170Z,1.2
2019-05-21T00:38:17.934Z,1.2
2019-05-21T00:40:51.754Z,0
2019-05-21T00:43:26.061Z,0
2019-05-21T00:46:00.121Z,0
2019-05-21T00:48:34.132Z,0
2019-05-21T00:51:07.910Z,0
2019-05-21T00:53:42.086Z,0
2019-05-21T00:56:14.420Z,0
2019-05-21T00:58:46.877Z,0
2019-05-21T01:01:19.405Z,0
2019-05-21T01:03:51.832Z,0
2019-05-21T01:06:24.242Z,0
2019-05-21T01:08:56.508Z,0
2019-05-21T01:11:28.893Z,0
2019-05-21T01:14:01.868Z,0
2019-05-21T01:16:34.683Z,0
2019-05-21T01:19:06.955Z,0
2019-05-21T01:21:39.202Z,0
2019-05-21T01:24:11.572Z,0
2019-05-21T01:26:43.893Z,0
2019-05-21T01:29:16.310Z,0
2019-05-21T01:31:26.717Z,3.7
2019-05-21T01:34:01.020Z,3.7
2019-05-21T01:36:33.519Z,1.2
2019-05-21T01:39:05.770Z,1.2
2019-05-21T01:41:38.494Z,0
2019-05-21T01:44:10.783Z,0
2019-05-21T01:46:43.334Z,0
2019-05-21T01:49:15.950Z,0
2019-05-21T01:51:48.497Z,1.2
2019-05-21T01:54:20.814Z,1.2
2019-05-21T01:56:53.228Z,0
2019-05-21T01:59:25.468Z,0
2019-05-21T02:01:58.004Z,0
2019-05-21T02:04:30.897Z,0
2019-05-21T02:07:03.505Z,0
2019-05-21T02:09:35.641Z,0
2019-05-21T02:12:11.754Z,1.2
2019-05-21T02:14:44.028Z,1.2
2019-05-21T02:17:16.592Z,2.5
2019-05-21T02:19:49.379Z,2.5
2019-05-21T02:22:21.820Z,1.2
2019-05-21T02:24:54.101Z,1.2
2019-05-21T02:27:26.422Z,0
2019-05-21T02:29:58.660Z,0
2019-05-21T02:32:31.237Z,2.5
2019-05-21T02:35:04.082Z,2.5
2019-05-21T02:37:36.570Z,1.2
2019-05-21T02:40:09.006Z,1.2
2019-05-21T02:42:41.513Z,1.2
2019-05-21T02:45:13.849Z,1.2
2019-05-21T02:47:46.262Z,2.5
2019-05-21T02:50:19.175Z,2.5
2019-05-21T02:52:51.712Z,0
2019-05-21T02:55:24.008Z,0
2019-05-21T02:57:56.338Z,0
2019-05-21T03:00:28.669Z,0
2019-05-21T03:03:00.960Z,0
2019-05-21T03:05:33.727Z,0
2019-05-21T03:08:06.229Z,0
2019-05-21T03:10:38.674Z,0
2019-05-21T03:13:11.079Z,0
2019-05-21T03:15:43.434Z,0
2019-05-21T03:18:15.912Z,1.2
2019-05-21T03:20:48.258Z,0
2019-05-21T03:23:20.660Z,0
2019-05-21T03:25:52.923Z,0
2019-05-21T03:28:25.313Z,2.5
2019-05-21T03:31:26.957Z,0
2019-05-21T03:34:00.854Z,0
2019-05-21T03:36:35.407Z,0
2019-05-21T03:39:09.424Z,0
2019-05-21T03:41:43.185Z,2.5
2019-05-21T03:44:17.204Z,1.2
2019-05-21T03:46:51.115Z,1.2
2019-05-21T03:49:25.163Z,1.2
2019-05-21T03:51:58.901Z,2.5
2019-05-21T03:54:32.930Z,2.5
2019-05-21T03:57:06.658Z,1.2
2019-05-21T03:59:40.807Z,1.2
2019-05-21T04:02:14.632Z,1.2
2019-05-21T04:04:48.600Z,1.2
2019-05-21T04:07:22.844Z,1.2
2019-05-21T04:09:56.745Z,1.2
2019-05-21T04:12:30.656Z,0
2019-05-21T04:15:09.565Z,0
2019-05-21T04:17:43.305Z,0
2019-05-21T04:20:17.192Z,0
2019-05-21T04:22:51.564Z,0
2019-05-21T04:25:25.704Z,0
2019-05-21T04:27:59.501Z,0
2019-05-21T04:30:33.263Z,0
2019-05-21T04:33:07.050Z,0
2019-05-21T04:35:40.979Z,0
2019-05-21T04:38:15.247Z,0
2019-05-21T04:40:49.221Z,0
2019-05-21T04:43:22.968Z,0
2019-05-21T04:45:57.243Z,0
2019-05-21T04:48:29.599Z,0
2019-05-21T04:51:02.110Z,0
2019-05-21T04:53:34.483Z,0
2019-05-21T04:56:07.020Z,0
2019-05-21T04:58:39.496Z,0
2019-05-21T05:01:12.064Z,0
2019-05-21T05:03:44.195Z,0
2019-05-21T05:06:16.697Z,0
2019-05-21T05:08:49.520Z,0
2019-05-21T05:11:21.884Z,0
2019-05-21T05:13:54.107Z,0
2019-05-21T05:16:26.583Z,1.2
2019-05-21T05:18:58.799Z,1.2
2019-05-21T05:21:31.267Z,0
2019-05-21T05:24:03.830Z,0
2019-05-21T05:26:36.145Z,0
2019-05-21T05:29:08.677Z,0
2019-05-21T05:31:26.476Z,0
2019-05-21T05:34:00.349Z,0
2019-05-21T05:36:34.192Z,0
2019-05-21T05:39:08.301Z,0
2019-05-21T05:41:40.564Z,0
2019-05-21T05:44:12.912Z,0
2019-05-21T05:46:45.232Z,0
2019-05-21T05:49:17.701Z,0
2019-05-21T05:51:50.049Z,1.2
2019-05-21T05:54:22.486Z,1.2
2019-05-21T05:56:54.698Z,0
2019-05-21T05:59:27.129Z,0
2019-05-21T06:01:59.512Z,0
2019-05-21T06:04:32.069Z,0
2019-05-21T06:07:05.044Z,1.2
2019-05-21T06:09:37.576Z,1.2
2019-05-21T06:12:09.890Z,0
2019-05-21T06:14:42.281Z,0
2019-05-21T06:17:14.645Z,0
2019-05-21T06:19:47.175Z,0
2019-05-21T06:22:19.454Z,2.5
2019-05-21T06:24:51.985Z,2.5
2019-05-21T06:27:24.318Z,2.5
2019-05-21T06:29:56.940Z,2.5
2019-05-21T06:32:29.204Z,2.5
2019-05-21T06:35:01.707Z,2.5
2019-05-21T06:37:33.987Z,0
2019-05-21T06:40:06.766Z,1.2
2019-05-21T06:42:39.042Z,1.2
2019-05-21T06:45:11.544Z,0
2019-05-21T06:47:43.722Z,0
2019-05-21T06:50:16.231Z,2.5
2019-05-21T06:52:48.645Z,2.5
2019-05-21T06:55:21.336Z,1.2
2019-05-21T06:57:53.582Z,1.2
2019-05-21T07:00:25.945Z,0
2019-05-21T07:02:58.160Z,0
2019-05-21T07:05:30.585Z,0
2019-05-21T07:08:03.226Z,0
2019-05-21T07:10:35.822Z,2.5
2019-05-21T07:13:08.432Z,1.2
2019-05-21T07:15:41.091Z,1.2
2019-05-21T07:18:13.464Z,1.2
2019-05-21T07:20:45.697Z,2.5
2019-05-21T07:23:18.001Z,2.5
2019-05-21T07:25:50.730Z,1.2
2019-05-21T07:28:23.085Z,1.2
2019-05-21T07:31:27.067Z,1.2
2019-05-21T07:33:59.835Z,1.2
2019-05-21T07:36:32.547Z,1.2
2019-05-21T07:39:04.999Z,1.2
2019-05-21T07:41:37.699Z,1.2
2019-05-21T07:44:10.067Z,2.5
2019-05-21T07:46:42.687Z,2.5
2019-05-21T07:49:14.994Z,1.2
2019-05-21T07:51:47.444Z,2.5
2019-05-21T07:54:19.609Z,0
2019-05-21T07:56:52.201Z,0
2019-05-21T07:59:24.551Z,2.5
2019-05-21T08:01:56.963Z,2.5
2019-05-21T08:04:29.291Z,1.2
2019-05-21T08:07:01.666Z,1.2
2019-05-21T08:09:34.314Z,1.2
2019-05-21T08:12:40.455Z,1.2
2019-05-21T08:14:47.524Z,1.2
2019-05-21T08:17:20.150Z,1.2
2019-05-21T08:19:52.497Z,2.5
2019-05-21T08:22:25.094Z,1.2
2019-05-21T08:24:57.326Z,2.5
2019-05-21T08:27:30.341Z,2.5
2019-05-21T08:30:02.588Z,1.2
2019-05-21T08:32:34.897Z,3.7
2019-05-21T08:35:07.255Z,3.7
2019-05-21T08:37:40.029Z,3.7
2019-05-21T08:40:12.518Z,1.2
2019-05-21T08:42:44.903Z,1.2
2019-05-21T08:45:17.207Z,3.7
2019-05-21T08:47:49.711Z,3.7
2019-05-21T08:50:22.315Z,1.2
2019-05-21T08:52:54.809Z,1.2
2019-05-21T08:55:27.094Z,0
2019-05-21T08:58:08.505Z,0
2019-05-21T09:00:40.360Z,0
2019-05-21T09:03:12.694Z,2.5
2019-05-21T09:05:45.040Z,4.9
2019-05-21T09:08:17.442Z,4.9
2019-05-21T09:10:49.664Z,1.2
2019-05-21T09:13:22.448Z,1.2
2019-05-21T09:15:54.774Z,1.2
2019-05-21T09:18:27.154Z,1.2
2019-05-21T09:20:59.443Z,2.5
2019-05-21T09:23:32.021Z,2.5
2019-05-21T09:26:04.362Z,3.7
2019-05-21T09:28:36.923Z,3.7
2019-05-21T09:31:26.484Z,2.5
2019-05-21T09:34:00.387Z,2.5
2019-05-21T09:36:34.185Z,3.7
2019-05-21T09:39:08.035Z,1.2
2019-05-21T09:41:42.101Z,1.2
2019-05-21T09:44:16.525Z,2.5
2019-05-21T09:46:50.468Z,2.5
2019-05-21T09:49:24.537Z,3.7
2019-05-21T09:51:58.481Z,3.7
2019-05-21T09:54:32.775Z,3.7
2019-05-21T09:57:05.099Z,3.7
2019-05-21T09:59:37.993Z,3.7
2019-05-21T10:02:10.256Z,1.2
2019-05-21T10:04:42.745Z,2.5
2019-05-21T10:07:15.264Z,2.5
2019-05-21T10:09:48.064Z,2.5
2019-05-21T10:12:20.493Z,3.7
2019-05-21T10:14:53.108Z,3.7
2019-05-21T10:17:25.462Z,3.7
2019-05-21T10:19:59.788Z,2.5
2019-05-21T10:22:32.241Z,6.1
2019-05-21T10:25:04.554Z,3.7
2019-05-21T10:27:36.939Z,3.7
2019-05-21T10:30:10.295Z,6.1
2019-05-21T10:32:42.677Z,6.1
2019-05-21T10:35:15.388Z,1.2
2019-05-21T10:37:56.167Z,1.2
2019-05-21T10:40:28.727Z,2.5
2019-05-21T10:43:01.050Z,2.5
2019-05-21T10:45:33.668Z,3.7
2019-05-21T10:48:06.096Z,8.6
2019-05-21T10:50:38.706Z,8.6
2019-05-21T10:53:10.864Z,6.1
2019-05-21T10:55:43.357Z,6.1
2019-05-21T10:58:15.490Z,6.1
2019-05-21T11:00:47.859Z,6.1
2019-05-21T11:03:20.604Z,4.9
2019-05-21T11:06:11.264Z,4.9
2019-05-21T11:08:33.990Z,3.7
2019-05-21T11:11:06.607Z,3.7
2019-05-21T11:13:38.826Z,4.9
2019-05-21T11:16:12.285Z,4.9
2019-05-21T11:18:44.574Z,3.7
2019-05-21T11:21:17.196Z,3.7
2019-05-21T11:23:50.401Z,4.9
2019-05-21T11:26:22.750Z,4.9
2019-05-21T11:28:54.903Z,3.7
2019-05-21T11:31:27.183Z,3.7
2019-05-21T11:34:01.065Z,1.2
2019-05-21T11:36:34.991Z,1.2
2019-05-21T11:39:08.791Z,2.5
2019-05-21T11:41:42.591Z,2.5
2019-05-21T11:44:16.381Z,3.7
2019-05-21T11:46:50.272Z,3.7
2019-05-21T11:49:24.330Z,1.2
2019-05-21T11:51:58.452Z,1.2
2019-05-21T11:54:32.198Z,3.7
2019-05-21T11:57:06.358Z,3.7
2019-05-21T11:59:38.683Z,2.5
2019-05-21T12:02:11.493Z,3.7
2019-05-21T12:04:44.113Z,2.5
2019-05-21T12:07:16.526Z,2.5
2019-05-21T12:09:49.012Z,4.9
2019-05-21T12:12:21.674Z,3.7
2019-05-21T12:14:53.921Z,3.7
2019-05-21T12:17:26.687Z,3.7
2019-05-21T12:19:58.897Z,2.5
2019-05-21T12:22:31.511Z,1.2
2019-05-21T12:25:03.792Z,0
2019-05-21T12:27:36.392Z,0
2019-05-21T12:30:08.667Z,2.5
2019-05-21T12:32:41.023Z,4.9
2019-05-21T12:35:13.349Z,3.7
2019-05-21T12:37:45.662Z,3.7
2019-05-21T12:40:17.926Z,7.3
2019-05-21T12:42:50.373Z,2.5
2019-05-21T12:45:22.715Z,4.9
2019-05-21T12:47:55.516Z,4.9
2019-05-21T12:50:27.839Z,3.7
2019-05-21T12:53:00.359Z,4.9
2019-05-21T12:55:32.665Z,7.3
2019-05-21T12:58:05.069Z,7.3
2019-05-21T13:00:37.506Z,2.5
2019-05-21T13:03:10.157Z,1.2
2019-05-21T13:05:42.536Z,1.2
2019-05-21T13:08:15.106Z,1.2
2019-05-21T13:10:47.826Z,1.2
2019-05-21T13:13:20.276Z,2.5
2019-05-21T13:15:52.222Z,2.5
2019-05-21T13:18:24.427Z,1.2
2019-05-21T13:20:56.179Z,1.2
2019-05-21T13:23:28.309Z,6.1
2019-05-21T13:31:25.650Z,3.7
2019-05-21T13:34:00.166Z,3.7
2019-05-21T13:36:34.008Z,3.7
2019-05-21T13:39:07.992Z,3.7
2019-05-21T13:41:41.987Z,3.7
2019-05-21T13:44:15.862Z,2.5
2019-05-21T13:46:49.834Z,2.5
2019-05-21T13:49:24.232Z,3.7
2019-05-21T13:51:58.114Z,3.7
2019-05-21T13:54:32.518Z,3.7
2019-05-21T13:57:06.476Z,3.7
2019-05-21T13:59:40.520Z,2.5
2019-05-21T14:02:14.765Z,3.7
2019-05-21T14:04:47.276Z,2.5
2019-05-21T14:07:19.645Z,2.5
2019-05-21T14:10:22.279Z,4.9
2019-05-21T14:12:33.004Z,3.7
2019-05-21T14:15:05.379Z,2.5
2019-05-21T14:17:37.724Z,2.5
2019-05-21T14:20:10.686Z,0
2019-05-21T14:22:43.006Z,0
2019-05-21T14:25:15.474Z,4.9
2019-05-21T14:27:47.715Z,4.9
2019-05-21T14:30:20.365Z,1.2
2019-05-21T14:32:52.748Z,2.5
2019-05-21T14:35:25.470Z,2.5
2019-05-21T14:37:57.900Z,2.5
2019-05-21T14:40:33.470Z,2.5
2019-05-21T14:43:05.820Z,1.2
2019-05-21T14:45:38.238Z,1.2
2019-05-21T14:48:10.567Z,0
2019-05-21T14:50:42.965Z,0
2019-05-21T14:53:15.606Z,0
2019-05-21T14:55:48.123Z,0
2019-05-21T14:58:20.440Z,1.2
2019-05-21T15:00:53.040Z,1.2
2019-05-21T15:03:30.160Z,0
2019-05-21T15:06:02.959Z,0
2019-05-21T15:08:35.254Z,3.7
2019-05-21T15:11:07.700Z,3.7
2019-05-21T15:13:40.024Z,3.7
2019-05-21T15:16:12.307Z,3.7
2019-05-21T15:18:44.715Z,3.7
2019-05-21T15:21:17.546Z,3.7
2019-05-21T15:23:50.800Z,3.7
2019-05-21T15:26:23.413Z,3.7
2019-05-21T15:28:55.902Z,0
2019-05-21T15:31:27.064Z,0
2019-05-21T15:34:00.765Z,3.7
2019-05-21T15:36:35.092Z,3.7
2019-05-21T15:39:08.983Z,1.2
2019-05-21T15:41:42.869Z,1.2
2019-05-21T15:44:16.871Z,6.1
2019-05-21T15:46:52.745Z,6.1
2019-05-21T15:49:37.745Z,3.7
2019-05-21T15:52:09.315Z,2.5
2019-05-21T15:54:43.275Z,2.5
2019-05-21T15:57:17.277Z,2.5
2019-05-21T15:59:51.025Z,2.5
2019-05-21T16:02:24.967Z,3.7
2019-05-21T16:04:58.847Z,3.7
2019-05-21T16:07:33.146Z,3.7
2019-05-21T16:10:06.907Z,3.7
2019-05-21T16:12:40.735Z,2.5
2019-05-21T16:15:14.584Z,2.5
2019-05-21T16:17:48.551Z,2.5
2019-05-21T16:20:22.345Z,2.5
2019-05-21T16:22:56.446Z,6.1
2019-05-21T16:25:30.411Z,6.1
2019-05-21T16:28:04.744Z,2.5
2019-05-21T16:30:38.535Z,2.5
2019-05-21T16:33:12.807Z,1.2
2019-05-21T16:35:45.008Z,1.2
2019-05-21T16:38:17.756Z,3.7
2019-05-21T16:40:50.068Z,3.7
2019-05-21T16:43:22.519Z,2.5
2019-05-21T16:45:54.988Z,2.5
2019-05-21T16:48:27.508Z,1.2
2019-05-21T16:50:59.956Z,1.2
2019-05-21T16:53:32.159Z,4.9
2019-05-21T16:56:04.476Z,4.9
2019-05-21T16:58:36.669Z,3.7
2019-05-21T17:01:09.019Z,3.7
2019-05-21T17:03:41.521Z,2.5
2019-05-21T17:06:13.953Z,2.5
2019-05-21T17:08:47.693Z,3.7
2019-05-21T17:11:21.039Z,1.2
2019-05-21T17:13:55.776Z,4.9
2019-05-21T17:16:28.031Z,4.9
2019-05-21T17:19:00.587Z,1.2
2019-05-21T17:21:33.032Z,4.9
2019-05-21T17:24:05.950Z,3.7
2019-05-21T17:26:38.591Z,3.7
2019-05-21T17:29:11.022Z,2.5
2019-05-21T17:31:26.338Z,1.2
2019-05-21T17:34:00.158Z,1.2
2019-05-21T17:36:34.038Z,1.2
2019-05-21T17:39:08.233Z,1.2
2019-05-21T17:41:40.482Z,3.7
2019-05-21T17:44:12.904Z,3.7
2019-05-21T17:46:45.134Z,3.7
2019-05-21T17:49:17.347Z,2.5
2019-05-21T17:51:49.893Z,1.2
2019-05-21T17:54:22.641Z,1.2
2019-05-21T17:56:55.080Z,1.2
2019-05-21T17:59:27.333Z,1.2
2019-05-21T18:02:00.151Z,1.2
2019-05-21T18:04:32.522Z,1.2
2019-05-21T18:07:05.041Z,1.2
2019-05-21T18:09:37.740Z,2.5
2019-05-21T18:12:10.272Z,2.5
2019-05-21T18:14:42.651Z,2.5
2019-05-21T18:17:15.331Z,2.5
2019-05-21T18:19:48.320Z,2.5
2019-05-21T18:22:20.694Z,2.5
2019-05-21T18:24:53.195Z,2.5
2019-05-21T18:27:25.549Z,2.5
2019-05-21T18:29:57.941Z,2.5
2019-05-21T18:32:30.847Z,1.2
2019-05-21T18:35:03.204Z,1.2
2019-05-21T18:37:35.971Z,1.2
2019-05-21T18:40:08.795Z,1.2
2019-05-21T18:42:41.570Z,1.2
2019-05-21T18:45:14.193Z,1.2
2019-05-21T18:47:46.995Z,1.2
2019-05-21T18:50:36.496Z,1.2
2019-05-21T18:53:00.767Z,0
2019-05-21T18:55:33.081Z,0
2019-05-21T18:58:06.139Z,4.9
2019-05-21T19:00:39.161Z,4.9
2019-05-21T19:03:11.710Z,1.2
2019-05-21T19:05:44.060Z,1.2
2019-05-21T19:08:16.518Z,2.5
2019-05-21T19:10:48.825Z,2.5
2019-05-21T19:13:21.277Z,2.5
2019-05-21T19:15:53.569Z,2.5
2019-05-21T19:18:28.167Z,3.7
2019-05-21T19:21:00.611Z,3.7
2019-05-21T19:23:33.673Z,1.2
2019-05-21T19:26:06.692Z,1.2
2019-05-21T19:28:39.216Z,0
2019-05-21T19:31:26.817Z,0
2019-05-21T19:34:00.643Z,0
2019-05-21T19:36:35.074Z,0
2019-05-21T19:39:09.136Z,3.7
2019-05-21T19:41:43.522Z,0
2019-05-21T19:44:17.422Z,0
2019-05-21T19:46:51.319Z,0
2019-05-21T19:49:25.249Z,0
2019-05-21T19:51:59.087Z,1.2
2019-05-21T19:54:33.014Z,1.2
2019-05-21T19:57:07.287Z,1.2
2019-05-21T19:59:41.121Z,1.2
2019-05-21T20:02:15.015Z,0
2019-05-21T20:04:48.911Z,0
2019-05-21T20:07:22.953Z,0
2019-05-21T20:09:56.906Z,0
2019-05-21T20:12:31.144Z,3.7
2019-05-21T20:15:03.688Z,1.2
2019-05-21T20:17:36.144Z,1.2
2019-05-21T20:20:08.969Z,2.5
2019-05-21T20:22:41.483Z,2.5
2019-05-21T20:25:14.473Z,1.2
2019-05-21T20:27:47.742Z,1.2
2019-05-21T20:30:20.283Z,0
2019-05-21T20:32:52.980Z,1.2
2019-05-21T20:35:25.849Z,2.5
2019-05-21T20:37:58.135Z,2.5
2019-05-21T20:40:30.567Z,1.2
2019-05-21T20:43:03.414Z,1.2
2019-05-21T20:45:36.165Z,0
2019-05-21T20:48:08.507Z,0
2019-05-21T20:50:48.495Z,0
2019-05-21T20:53:22.603Z,0
2019-05-21T20:55:56.793Z,0
2019-05-21T20:58:32.101Z,0
2019-05-21T21:01:06.663Z,0
2019-05-21T21:03:38.761Z,0
2019-05-21T21:06:11.159Z,0
2019-05-21T21:08:43.606Z,0
2019-05-21T21:11:16.185Z,0
2019-05-21T21:13:48.919Z,0
2019-05-21T21:16:21.324Z,0
2019-05-21T21:18:53.754Z,0
2019-05-21T21:21:26.334Z,0
2019-05-21T21:23:58.686Z,0
2019-05-21T21:26:31.169Z,0
2019-05-21T21:29:03.992Z,0
2019-05-21T21:31:26.147Z,0
2019-05-21T21:33:59.925Z,0
2019-05-21T21:36:34.661Z,0
2019-05-21T21:39:08.691Z,0
2019-05-21T21:41:42.734Z,0
2019-05-21T21:44:31.567Z,0
2019-05-21T21:46:59.029Z,0
2019-05-21T21:49:33.120Z,0
2019-05-21T21:52:06.874Z,0
2019-05-21T21:54:40.687Z,0
2019-05-21T21:57:22.606Z,0
2019-05-21T21:59:56.860Z,0
2019-05-21T22:02:30.674Z,0
2019-05-21T22:05:04.768Z,0
2019-05-21T22:07:37.172Z,0
2019-05-21T22:10:09.585Z,0
2019-05-21T22:12:41.870Z,0
2019-05-21T22:15:14.357Z,0
2019-05-21T22:17:46.587Z,0
2019-05-21T22:20:19.118Z,0
2019-05-21T22:22:51.397Z,0
2019-05-21T22:25:23.781Z,0
2019-05-21T22:27:56.129Z,0
2019-05-21T22:30:29.130Z,0
2019-05-21T22:33:01.464Z,0
2019-05-21T22:35:33.964Z,0
2019-05-21T22:38:06.280Z,1.2
2019-05-21T22:40:38.754Z,1.2
2019-05-21T22:43:11.356Z,0
2019-05-21T22:45:44.221Z,0
2019-05-21T22:48:16.565Z,0
2019-05-21T22:50:49.004Z,0
2019-05-21T22:53:21.246Z,0
2019-05-21T22:55:53.571Z,0
2019-05-21T22:58:25.732Z,0
2019-05-21T23:00:58.606Z,0
2019-05-21T23:03:30.888Z,0
2019-05-21T23:06:03.259Z,0
2019-05-21T23:08:35.449Z,0
2019-05-21T23:11:07.900Z,0
2019-05-21T23:13:40.114Z,0
2019-05-21T23:16:12.605Z,0
2019-05-21T23:18:44.862Z,0
2019-05-21T23:21:17.370Z,0
2019-05-21T23:23:49.752Z,0
2019-05-21T23:26:22.375Z,0
2019-05-21T23:28:54.631Z,0
2019-05-21T23:31:26.839Z,0
2019-05-21T23:34:00.957Z,0
2019-05-21T23:36:33.258Z,0
2019-05-21T23:39:05.545Z,0
2019-05-21T23:41:37.931Z,1.2
2019-05-21T23:44:10.345Z,0
2019-05-21T23:46:42.881Z,0
2019-05-21T23:49:15.169Z,0
2019-05-21T23:51:47.574Z,0
2019-05-21T23:54:20.190Z,0
2019-05-21T23:56:52.748Z,0
2019-05-21T23:59:25.134Z,0
